createdAt,value
2023-12-30T00:01:23.693Z,9.77
2023-12-30T00:03:51.874Z,7.40
2023-12-30T00:06:21.105Z,9.87
2023-12-30T00:08:49.222Z,9.10
2023-12-30T00:11:18.696Z,9.20
2023-12-30T00:13:46.756Z,11.93
2023-12-30T00:16:15.216Z,10.70
2023-12-30T00:18:43.568Z,9.73
2023-12-30T00:21:12.195Z,12.37
2023-12-30T00:23:46.248Z,12.70
2023-12-30T00:26:22.856Z,12.00
2023-12-30T00:28:51.341Z,13.40
2023-12-30T00:31:23.642Z,14.33
2023-12-30T00:33:52.026Z,14.40
2023-12-30T00:36:20.419Z,13.20
2023-12-30T00:38:48.490Z,13.57
2023-12-30T00:41:16.587Z,13.70
2023-12-30T00:43:46.054Z,12.27
2023-12-30T00:46:14.140Z,12.00
2023-12-30T00:48:42.263Z,12.33
2023-12-30T00:51:11.061Z,12.40
2023-12-30T00:53:39.174Z,14.20
2023-12-30T00:56:09.852Z,11.97
2023-12-30T00:58:38.334Z,10.00
2023-12-30T01:01:09.528Z,11.37
2023-12-30T01:03:37.709Z,10.77
2023-12-30T01:06:05.979Z,11.20
2023-12-30T01:08:34.167Z,13.13
2023-12-30T01:11:02.281Z,12.47
2023-12-30T01:13:30.405Z,11.20
2023-12-30T01:15:58.494Z,11.63
2023-12-30T01:18:28.068Z,11.27
2023-12-30T01:20:56.234Z,10.60
2023-12-30T01:23:24.296Z,8.17
2023-12-30T01:25:52.368Z,10.17
2023-12-30T01:28:21.131Z,9.90
2023-12-30T01:30:49.253Z,10.33
2023-12-30T01:33:17.627Z,9.83
2023-12-30T01:35:47.237Z,9.40
2023-12-30T01:38:15.307Z,9.07
2023-12-30T01:40:43.420Z,9.40
2023-12-30T01:43:26.455Z,9.23
2023-12-30T01:45:55.414Z,9.07
2023-12-30T01:48:24.466Z,8.40
2023-12-30T01:50:54.557Z,8.60
2023-12-30T01:53:23.756Z,6.93
2023-12-30T01:55:53.113Z,7.47
2023-12-30T01:58:22.146Z,8.67
2023-12-30T02:00:51.207Z,7.27
2023-12-30T02:03:19.457Z,7.20
2023-12-30T02:05:48.653Z,7.53
2023-12-30T02:08:19.105Z,7.43
2023-12-30T02:10:48.140Z,8.50
2023-12-30T02:13:16.331Z,8.60
2023-12-30T02:15:44.394Z,7.53
2023-12-30T02:18:13.048Z,6.47
2023-12-30T02:20:41.267Z,7.23
2023-12-30T02:23:10.660Z,8.93
2023-12-30T02:25:38.862Z,7.63
2023-12-30T02:28:07.225Z,6.70
2023-12-30T02:30:35.355Z,9.03
2023-12-30T02:33:03.762Z,8.40
2023-12-30T02:35:32.094Z,8.27
2023-12-30T02:38:00.177Z,7.60
2023-12-30T02:40:29.732Z,8.43
2023-12-30T02:42:57.948Z,8.73
2023-12-30T02:45:26.129Z,7.50
2023-12-30T02:47:54.731Z,7.07
2023-12-30T02:50:25.861Z,7.27
2023-12-30T02:52:53.969Z,7.43
2023-12-30T02:55:30.728Z,7.83
2023-12-30T02:58:00.578Z,7.50
2023-12-30T03:00:29.125Z,7.97
2023-12-30T03:02:57.802Z,9.97
2023-12-30T03:05:29.050Z,8.73
2023-12-30T03:07:58.942Z,8.87
2023-12-30T03:10:27.169Z,7.53
2023-12-30T03:12:55.335Z,7.90
2023-12-30T03:15:24.846Z,8.30
2023-12-30T03:17:52.910Z,9.07
2023-12-30T03:20:21.060Z,8.53
2023-12-30T03:22:49.119Z,8.13
2023-12-30T03:25:17.268Z,8.40
2023-12-30T03:27:45.409Z,9.07
2023-12-30T03:30:15.804Z,8.73
2023-12-30T03:32:45.295Z,8.67
2023-12-30T03:35:13.891Z,9.10
2023-12-30T03:37:41.944Z,10.07
2023-12-30T03:40:11.279Z,8.03
2023-12-30T03:42:39.346Z,9.07
2023-12-30T03:45:08.641Z,9.37
2023-12-30T03:47:36.780Z,6.40
2023-12-30T03:50:07.415Z,6.60
2023-12-30T03:52:35.652Z,7.77
2023-12-30T03:55:04.424Z,6.10
2023-12-30T03:57:32.493Z,7.17
2023-12-30T04:00:00.557Z,7.17
2023-12-30T04:02:28.697Z,7.00
2023-12-30T04:04:56.820Z,6.90
2023-12-30T04:07:28.487Z,6.73
2023-12-30T04:09:56.650Z,6.60
2023-12-30T04:12:25.158Z,6.00
2023-12-30T04:14:53.315Z,6.60
2023-12-30T04:17:21.710Z,7.63
2023-12-30T04:19:49.979Z,6.27
2023-12-30T04:22:18.315Z,8.40
2023-12-30T04:24:48.234Z,7.23
2023-12-30T04:27:16.350Z,8.93
2023-12-30T04:29:44.429Z,9.07
2023-12-30T04:32:12.876Z,7.40
2023-12-30T04:34:40.995Z,8.97
2023-12-30T04:37:09.185Z,8.53
2023-12-30T04:39:37.278Z,8.60
2023-12-30T04:42:07.889Z,7.93
2023-12-30T04:44:35.963Z,9.03
2023-12-30T04:47:04.125Z,9.73
2023-12-30T04:49:32.379Z,10.23
2023-12-30T04:52:01.692Z,9.33
2023-12-30T04:54:31.686Z,10.30
2023-12-30T04:56:59.755Z,11.17
2023-12-30T04:59:29.514Z,11.93
2023-12-30T05:01:58.436Z,9.13
2023-12-30T05:04:26.561Z,12.40
2023-12-30T05:06:54.802Z,9.93
2023-12-30T05:09:22.920Z,9.93
2023-12-30T05:11:51.699Z,9.87
2023-12-30T05:14:21.133Z,9.67
2023-12-30T05:16:50.813Z,8.60
2023-12-30T05:19:19.050Z,9.37
2023-12-30T05:21:52.337Z,8.60
2023-12-30T05:24:20.554Z,8.13
2023-12-30T05:26:49.961Z,9.77
2023-12-30T05:29:18.312Z,11.00
2023-12-30T05:31:46.786Z,11.67
2023-12-30T05:34:16.830Z,9.93
2023-12-30T05:36:47.080Z,10.23
2023-12-30T05:39:15.900Z,10.20
2023-12-30T05:41:44.043Z,9.23
2023-12-30T05:44:12.104Z,9.60
2023-12-30T05:46:40.287Z,9.27
2023-12-30T05:49:08.519Z,7.77
2023-12-30T05:51:43.357Z,8.63
2023-12-30T05:54:11.769Z,7.67
2023-12-30T05:56:39.896Z,7.87
2023-12-30T05:59:08.011Z,7.33
2023-12-30T06:01:36.255Z,5.43
2023-12-30T06:04:08.438Z,5.37
2023-12-30T06:06:51.378Z,6.13
2023-12-30T06:09:31.235Z,3.87
2023-12-30T06:12:04.795Z,4.10
2023-12-30T06:14:41.622Z,2.43
2023-12-30T06:17:09.828Z,2.33
2023-12-30T06:19:37.907Z,2.47
2023-12-30T06:22:07.706Z,1.57
2023-12-30T06:24:35.889Z,2.93
2023-12-30T06:27:03.965Z,1.80
2023-12-30T06:29:33.371Z,1.70
2023-12-30T06:32:01.724Z,2.93
2023-12-30T06:34:29.837Z,2.03
2023-12-30T06:36:57.982Z,2.10
2023-12-30T06:39:27.465Z,3.40
2023-12-30T06:41:56.388Z,2.40
2023-12-30T06:44:26.805Z,2.43
2023-12-30T06:46:55.068Z,2.87
2023-12-30T06:49:23.445Z,2.00
2023-12-30T06:51:51.728Z,2.70
2023-12-30T06:54:19.816Z,2.63
2023-12-30T06:56:50.587Z,2.30
2023-12-30T06:59:18.667Z,2.90
2023-12-30T07:01:46.774Z,1.73
2023-12-30T07:04:15.650Z,2.37
2023-12-30T07:06:43.985Z,3.20
2023-12-30T07:09:12.046Z,2.20
2023-12-30T07:11:40.111Z,2.17
2023-12-30T07:14:09.617Z,4.10
2023-12-30T07:16:37.749Z,3.30
2023-12-30T07:19:05.942Z,2.43
2023-12-30T07:21:34.092Z,2.40
2023-12-30T07:24:02.504Z,3.03
2023-12-30T07:26:30.621Z,3.13
2023-12-30T07:28:58.695Z,2.07
2023-12-30T07:31:28.404Z,2.10
2023-12-30T07:33:56.654Z,2.03
2023-12-30T07:36:25.805Z,1.90
2023-12-30T07:38:53.871Z,2.13
2023-12-30T07:41:21.986Z,1.77
2023-12-30T07:43:50.641Z,2.03
2023-12-30T07:46:18.937Z,2.10
2023-12-30T07:48:48.509Z,2.20
2023-12-30T07:51:16.854Z,2.33
2023-12-30T07:53:44.951Z,2.33
2023-12-30T07:56:13.025Z,2.43
2023-12-30T07:58:42.541Z,2.23
2023-12-30T08:01:10.787Z,2.33
2023-12-30T08:03:39.100Z,3.23
2023-12-30T08:06:09.184Z,2.90
2023-12-30T08:08:37.953Z,4.17
2023-12-30T08:11:06.332Z,3.60
2023-12-30T08:13:34.470Z,3.13
2023-12-30T08:16:03.663Z,2.53
2023-12-30T08:18:31.934Z,4.00
2023-12-30T08:21:03.570Z,3.07
2023-12-30T08:23:35.881Z,2.73
2023-12-30T08:26:05.616Z,2.43
2023-12-30T08:28:34.165Z,2.00
2023-12-30T08:31:06.772Z,2.10
2023-12-30T08:33:34.950Z,1.63
2023-12-30T08:36:03.684Z,1.10
2023-12-30T08:38:33.218Z,1.90
2023-12-30T08:41:02.453Z,1.57
2023-12-30T08:43:30.853Z,2.23
2023-12-30T08:45:59.092Z,3.30
2023-12-30T08:48:27.289Z,2.67
2023-12-30T08:50:55.461Z,1.70
2023-12-30T08:53:26.162Z,2.90
2023-12-30T08:55:56.419Z,1.70
2023-12-30T08:58:25.933Z,1.60
2023-12-30T09:00:54.819Z,3.10
2023-12-30T09:03:23.040Z,1.77
2023-12-30T09:05:51.160Z,2.40
2023-12-30T09:08:19.902Z,3.70
2023-12-30T09:10:48.177Z,2.60
2023-12-30T09:13:17.780Z,2.90
2023-12-30T09:15:47.183Z,2.53
2023-12-30T09:18:16.062Z,2.73
2023-12-30T09:20:44.556Z,2.50
2023-12-30T09:23:12.671Z,1.97
2023-12-30T09:25:40.838Z,3.13
2023-12-30T09:28:09.032Z,2.20
2023-12-30T09:30:38.735Z,2.37
2023-12-30T09:33:09.394Z,1.50
2023-12-30T09:35:39.466Z,1.60
2023-12-30T09:38:07.650Z,2.10
2023-12-30T09:40:35.973Z,1.90
2023-12-30T09:43:09.111Z,1.50
2023-12-30T09:45:40.880Z,2.73
2023-12-30T09:48:11.096Z,1.50
2023-12-30T09:50:39.318Z,1.50
2023-12-30T09:53:07.639Z,1.70
2023-12-30T09:55:35.733Z,1.27
2023-12-30T09:58:04.834Z,2.13
2023-12-30T10:00:34.431Z,1.53
2023-12-30T10:03:04.881Z,1.30
2023-12-30T10:05:33.097Z,1.90
2023-12-30T10:08:04.743Z,3.30
2023-12-30T10:10:44.549Z,1.87
2023-12-30T10:13:13.745Z,1.43
2023-12-30T10:15:43.228Z,1.50
2023-12-30T10:18:15.597Z,2.50
2023-12-30T10:20:44.856Z,1.80
2023-12-30T10:23:13.154Z,2.53
2023-12-30T10:25:42.784Z,2.07
2023-12-30T10:28:11.425Z,2.07
2023-12-30T10:30:39.597Z,2.37
2023-12-30T10:33:09.485Z,1.47
2023-12-30T10:35:40.854Z,3.90
2023-12-30T10:38:10.527Z,1.57
2023-12-30T10:40:39.398Z,2.30
2023-12-30T10:43:08.777Z,2.93
2023-12-30T10:45:37.416Z,2.40
2023-12-30T10:48:09.544Z,1.60
2023-12-30T10:50:40.838Z,3.33
2023-12-30T10:53:13.356Z,2.40
2023-12-30T10:55:50.190Z,2.33
2023-12-30T10:58:20.794Z,2.70
2023-12-30T11:00:54.030Z,1.70
2023-12-30T11:03:23.049Z,1.77
2023-12-30T11:06:02.557Z,1.70
2023-12-30T11:08:31.173Z,2.00
2023-12-30T11:11:00.790Z,7.83
2023-12-30T11:13:29.049Z,1.70
2023-12-30T11:15:58.077Z,2.00
2023-12-30T11:18:49.157Z,2.53
2023-12-30T11:21:37.542Z,2.17
2023-12-30T11:24:08.363Z,2.07
2023-12-30T11:26:39.249Z,2.10
2023-12-30T11:29:14.872Z,3.63
2023-12-30T11:31:43.991Z,2.50
2023-12-30T11:34:12.823Z,4.13
2023-12-30T11:36:43.731Z,3.10
2023-12-30T11:39:13.957Z,3.13
2023-12-30T11:41:42.095Z,4.37
2023-12-30T11:44:10.475Z,3.17
2023-12-30T11:46:38.703Z,4.20
2023-12-30T11:49:07.689Z,2.60
2023-12-30T11:51:35.880Z,3.13
2023-12-30T11:54:05.618Z,3.30
2023-12-30T11:56:33.990Z,2.10
2023-12-30T11:59:02.554Z,1.77
2023-12-30T12:01:31.772Z,2.67
2023-12-30T12:03:59.996Z,2.63
2023-12-30T12:06:28.151Z,1.87
2023-12-30T12:08:56.222Z,1.47
2023-12-30T12:11:25.700Z,1.50
2023-12-30T12:13:58.972Z,1.70
2023-12-30T12:16:28.998Z,1.00
2023-12-30T12:18:58.910Z,0.97
2023-12-30T12:21:27.886Z,1.63
2023-12-30T12:23:56.006Z,1.00
2023-12-30T12:26:26.090Z,1.57
2023-12-30T12:28:55.358Z,0.93
2023-12-30T12:31:23.824Z,1.77
2023-12-30T12:33:52.412Z,1.20
2023-12-30T12:36:20.623Z,1.63
2023-12-30T12:38:48.828Z,1.40
2023-12-30T12:41:17.177Z,1.63
2023-12-30T12:43:46.742Z,2.27
2023-12-30T12:46:15.649Z,2.67
2023-12-30T12:48:46.002Z,2.30
2023-12-30T12:51:14.273Z,2.33
2023-12-30T12:53:42.696Z,3.07
2023-12-30T12:56:12.336Z,2.53
2023-12-30T12:58:41.575Z,3.93
2023-12-30T13:01:11.912Z,3.67
2023-12-30T13:03:40.241Z,5.67
2023-12-30T13:06:17.382Z,4.17
2023-12-30T13:08:54.654Z,4.27
2023-12-30T13:11:28.289Z,4.13
2023-12-30T13:13:59.123Z,3.10
2023-12-30T13:16:28.812Z,3.67
2023-12-30T13:18:57.307Z,4.50
2023-12-30T13:21:27.480Z,3.00
2023-12-30T13:24:02.052Z,3.47
2023-12-30T13:26:30.506Z,3.17
2023-12-30T13:29:01.360Z,2.87
2023-12-30T13:31:33.715Z,4.33
2023-12-30T13:34:02.334Z,3.73
2023-12-30T13:36:31.876Z,3.80
2023-12-30T13:39:09.521Z,3.80
2023-12-30T13:41:41.249Z,3.47
2023-12-30T13:44:16.907Z,2.80
2023-12-30T13:47:14.356Z,3.17
2023-12-30T13:50:09.057Z,3.37
2023-12-30T13:52:38.486Z,3.13
2023-12-30T13:55:14.047Z,3.70
2023-12-30T13:57:43.672Z,3.33
2023-12-30T14:00:14.873Z,2.50
2023-12-30T14:02:45.065Z,3.40
2023-12-30T14:05:19.096Z,4.07
2023-12-30T14:07:47.345Z,2.80
2023-12-30T14:10:19.699Z,2.67
2023-12-30T14:12:50.102Z,2.90
2023-12-30T14:15:19.250Z,3.07
2023-12-30T14:17:49.409Z,3.07
2023-12-30T14:20:17.966Z,4.47
2023-12-30T14:22:46.398Z,2.67
2023-12-30T14:25:14.753Z,4.87
2023-12-30T14:27:45.728Z,4.40
2023-12-30T14:30:22.745Z,4.50
2023-12-30T14:32:52.579Z,5.50
2023-12-30T14:35:22.251Z,5.63
2023-12-30T14:37:50.568Z,10.23
2023-12-30T14:40:18.794Z,10.10
2023-12-30T14:42:48.193Z,11.97
2023-12-30T14:45:19.293Z,11.30
2023-12-30T14:47:48.216Z,13.00
2023-12-30T14:50:17.829Z,10.17
2023-12-30T14:52:47.705Z,13.43
2023-12-30T14:55:17.818Z,14.93
2023-12-30T14:57:49.892Z,14.87
2023-12-30T15:00:21.489Z,13.43
2023-12-30T15:02:51.543Z,10.93
2023-12-30T15:05:23.415Z,9.77
2023-12-30T15:07:55.792Z,6.57
2023-12-30T15:10:25.838Z,7.30
2023-12-30T15:12:54.384Z,6.60
2023-12-30T15:15:22.503Z,7.63
2023-12-30T15:17:51.458Z,6.03
2023-12-30T15:20:21.407Z,6.37
2023-12-30T15:22:49.625Z,5.40
2023-12-30T15:25:20.991Z,5.90
2023-12-30T15:27:56.886Z,5.13
2023-12-30T15:30:35.604Z,4.63
2023-12-30T15:33:04.890Z,5.30
2023-12-30T15:35:35.847Z,4.17
2023-12-30T15:38:04.414Z,4.00
2023-12-30T15:40:36.720Z,4.43
2023-12-30T15:43:13.307Z,4.20
2023-12-30T15:45:41.569Z,4.33
2023-12-30T15:48:13.248Z,4.40
2023-12-30T15:50:47.460Z,4.57
2023-12-30T15:53:16.557Z,6.47
2023-12-30T15:55:45.186Z,21.30
2023-12-30T15:58:13.534Z,16.97
2023-12-30T16:00:42.126Z,13.10
2023-12-30T16:03:14.607Z,11.40
2023-12-30T16:05:48.339Z,12.17
2023-12-30T16:08:17.460Z,11.53
2023-12-30T16:10:46.131Z,9.93
2023-12-30T16:13:19.491Z,10.30
2023-12-30T16:15:51.049Z,8.93
2023-12-30T16:18:19.457Z,13.20
2023-12-30T16:20:50.417Z,15.80
2023-12-30T16:23:18.626Z,13.77
2023-12-30T16:25:47.033Z,14.20
2023-12-30T16:28:18.375Z,11.97
2023-12-30T16:30:46.987Z,14.30
2023-12-30T16:33:15.213Z,12.53
2023-12-30T16:35:46.071Z,12.57
2023-12-30T16:38:15.715Z,12.43
2023-12-30T16:40:44.140Z,13.27
2023-12-30T16:43:12.467Z,13.93
2023-12-30T16:45:43.383Z,14.33
2023-12-30T16:48:25.713Z,13.43
2023-12-30T16:50:55.930Z,13.67
2023-12-30T16:53:34.007Z,13.87
2023-12-30T16:56:02.147Z,13.53
2023-12-30T16:58:41.056Z,13.07
2023-12-30T17:01:09.339Z,11.60
2023-12-30T17:03:38.023Z,11.30
2023-12-30T17:06:06.602Z,11.63
2023-12-30T17:08:36.264Z,14.93
2023-12-30T17:11:04.402Z,17.33
2023-12-30T17:13:39.233Z,20.83
2023-12-30T17:16:11.770Z,19.63
2023-12-30T17:18:39.850Z,18.43
2023-12-30T17:21:07.930Z,18.43
2023-12-30T17:23:37.375Z,15.67
2023-12-30T17:26:06.874Z,15.27
2023-12-30T17:28:35.404Z,16.50
2023-12-30T17:31:06.758Z,16.03
2023-12-30T17:33:35.383Z,17.13
2023-12-30T17:36:03.811Z,14.83
2023-12-30T17:38:32.157Z,14.87
2023-12-30T17:41:01.581Z,17.20
2023-12-30T17:43:30.379Z,15.13
2023-12-30T17:45:58.973Z,17.67
2023-12-30T17:48:27.149Z,22.70
2023-12-30T17:50:55.353Z,20.53
2023-12-30T17:53:23.674Z,18.97
2023-12-30T17:55:51.805Z,27.10
2023-12-30T17:58:22.004Z,24.17
2023-12-30T18:00:51.281Z,24.63
2023-12-30T18:03:19.715Z,35.13
2023-12-30T18:05:47.974Z,30.87
2023-12-30T18:08:16.116Z,30.40
2023-12-30T18:10:44.664Z,27.33
2023-12-30T18:13:12.992Z,28.70
2023-12-30T18:15:46.018Z,27.53
2023-12-30T18:18:14.628Z,25.97
2023-12-30T18:20:42.874Z,28.80
2023-12-30T18:23:11.052Z,28.03
2023-12-30T18:25:39.231Z,28.50
2023-12-30T18:28:08.205Z,24.67
2023-12-30T18:30:36.383Z,25.77
2023-12-30T18:33:06.622Z,23.87
2023-12-30T18:35:43.383Z,27.27
2023-12-30T18:38:11.528Z,26.20
2023-12-30T18:40:43.422Z,27.67
2023-12-30T18:43:12.757Z,30.57
2023-12-30T18:45:41.554Z,31.23
2023-12-30T18:48:13.623Z,30.63
2023-12-30T18:50:43.808Z,29.87
2023-12-30T18:53:17.311Z,30.60
2023-12-30T18:55:45.807Z,27.40
2023-12-30T18:58:14.276Z,28.93
2023-12-30T19:00:42.629Z,28.63
2023-12-30T19:03:16.524Z,35.03
2023-12-30T19:05:49.185Z,49.10
2023-12-30T19:08:18.468Z,47.30
2023-12-30T19:10:46.948Z,40.43
2023-12-30T19:13:16.826Z,39.40
2023-12-30T19:15:45.002Z,34.63
2023-12-30T19:18:14.578Z,38.97
2023-12-30T19:20:52.023Z,37.67
2023-12-30T19:23:22.286Z,34.47
2023-12-30T19:25:50.405Z,32.63
2023-12-30T19:28:18.498Z,29.70
2023-12-30T19:30:46.729Z,27.10
2023-12-30T19:33:16.521Z,30.13
2023-12-30T19:35:45.320Z,29.93
2023-12-30T19:38:13.813Z,31.47
2023-12-30T19:40:45.800Z,27.53
2023-12-30T19:43:15.300Z,22.60
2023-12-30T19:45:43.645Z,21.50
2023-12-30T19:48:11.794Z,21.47
2023-12-30T19:50:44.123Z,20.27
2023-12-30T19:53:13.461Z,20.47
2023-12-30T19:55:42.019Z,18.43
2023-12-30T19:58:10.392Z,21.20
2023-12-30T20:00:38.548Z,18.90
2023-12-30T20:03:09.506Z,20.77
2023-12-30T20:05:37.613Z,19.10
2023-12-30T20:08:08.255Z,20.30
2023-12-30T20:10:36.683Z,20.63
2023-12-30T20:13:05.396Z,20.27
2023-12-30T20:15:33.727Z,18.07
2023-12-30T20:18:03.333Z,17.13
2023-12-30T20:20:31.648Z,18.10
2023-12-30T20:23:00.912Z,17.23
2023-12-30T20:25:32.198Z,18.10
2023-12-30T20:28:01.522Z,16.77
2023-12-30T20:30:29.807Z,15.47
2023-12-30T20:32:57.984Z,15.30
2023-12-30T20:35:26.175Z,17.93
2023-12-30T20:37:56.659Z,22.23
2023-12-30T20:40:24.804Z,24.77
2023-12-30T20:42:55.342Z,25.40
2023-12-30T20:45:23.576Z,24.73
2023-12-30T20:47:51.825Z,21.97
2023-12-30T20:50:21.393Z,19.07
2023-12-30T20:52:49.520Z,15.50
2023-12-30T20:55:17.851Z,15.57
2023-12-30T20:57:46.368Z,16.30
2023-12-30T21:00:19.321Z,13.93
2023-12-30T21:02:47.476Z,20.00
2023-12-30T21:05:16.099Z,18.40
2023-12-30T21:07:44.389Z,22.40
2023-12-30T21:10:14.792Z,21.77
2023-12-30T21:12:42.964Z,21.67
2023-12-30T21:15:11.886Z,25.13
2023-12-30T21:17:41.466Z,25.83
2023-12-30T21:20:11.139Z,29.80
2023-12-30T21:22:41.684Z,35.07
2023-12-30T21:25:19.003Z,34.00
2023-12-30T21:27:52.166Z,38.67
2023-12-30T21:30:23.712Z,36.00
2023-12-30T21:32:53.448Z,36.73
2023-12-30T21:35:21.712Z,32.17
2023-12-30T21:37:49.886Z,27.00
2023-12-30T21:40:18.444Z,28.37
2023-12-30T21:42:46.944Z,40.37
2023-12-30T21:45:15.178Z,32.27
2023-12-30T21:47:42.493Z,34.93
2023-12-30T21:50:12.354Z,26.60
2023-12-30T21:52:40.633Z,26.43
2023-12-30T21:55:09.650Z,26.73
2023-12-30T21:57:41.083Z,24.47
2023-12-30T22:00:11.992Z,23.00
2023-12-30T22:02:40.970Z,20.10
2023-12-30T22:05:12.101Z,21.30
2023-12-30T22:07:40.288Z,20.33
2023-12-30T22:10:09.345Z,20.27
2023-12-30T22:12:37.588Z,18.10
2023-12-30T22:15:07.091Z,18.53
2023-12-30T22:17:35.637Z,18.67
2023-12-30T22:20:05.938Z,19.20
2023-12-30T22:22:37.081Z,18.70
2023-12-30T22:25:05.856Z,17.33
2023-12-30T22:27:34.014Z,18.80
2023-12-30T22:30:02.978Z,18.80
2023-12-30T22:32:31.753Z,20.73
2023-12-30T22:35:00.755Z,19.57
2023-12-30T22:37:28.914Z,20.23
2023-12-30T22:40:02.496Z,19.83
2023-12-30T22:42:30.557Z,16.83
2023-12-30T22:44:58.701Z,18.17
2023-12-30T22:47:26.848Z,18.60
2023-12-30T22:49:55.033Z,20.17
2023-12-30T22:52:23.227Z,19.67
2023-12-30T22:54:51.326Z,20.07
2023-12-30T22:57:20.787Z,17.77
2023-12-30T22:59:48.885Z,18.10
2023-12-30T23:02:18.825Z,16.90
2023-12-30T23:04:46.979Z,17.77
2023-12-30T23:07:16.174Z,19.27
2023-12-30T23:09:45.831Z,18.93
2023-12-30T23:12:15.075Z,17.40
2023-12-30T23:14:44.712Z,19.23
2023-12-30T23:17:13.609Z,19.13
2023-12-30T23:19:41.789Z,18.23
2023-12-30T23:22:10.061Z,20.13
2023-12-30T23:24:39.102Z,18.30
2023-12-30T23:27:07.343Z,19.27
2023-12-30T23:29:38.504Z,20.50
2023-12-30T23:32:08.784Z,22.37
2023-12-30T23:34:46.553Z,23.00
2023-12-30T23:37:17.965Z,23.20
2023-12-30T23:39:47.185Z,22.27
2023-12-30T23:42:16.818Z,21.60
2023-12-30T23:44:45.153Z,20.67
2023-12-30T23:47:14.598Z,23.40
2023-12-30T23:49:42.701Z,23.27
2023-12-30T23:52:10.822Z,23.93
2023-12-30T23:54:38.978Z,24.13
2023-12-30T23:57:07.398Z,25.77
2023-12-30T23:59:35.430Z,25.80
